Hlavní strana
METAR-TAF:

METAR-TAF

Letiště :

LaGrange-Callaway Airport

LaGrange, Georgie, Spojené státy americké

zeměpisná šířka: 33-00-32N, zeměpisná délka: 085-04-21W, výška: 211 m

Aktuální stav počasí

Zpráva byla vytvořena před 37 minutami, v 10:55 UTC
Bezvětří
Teplota 20°C
Vlhkost vzduchu 100%
Tlak 1022 hPa
Viditelnost: 16.1 km
Jasno

METAR: KLGC 241055Z AUTO 00000KT 10SM CLR 20/20 A3017 RMK AO2 T02020199

Čas: 07:32 (11:32 UTC)


TAF: chybějící

Stav a předpovědi počasí z více než 4 000 letišť (zprávy METAR a TAF).

Červené a žluté tečky na mapě představují dostupné meteorologické stanice.

Když kurzor umístíte na tečku, zobrazí se název stanice.

Pak kliknutím zobrazíte stav a předpověď počasí.

Chcete-li změnit mapu, kliknutím na zelené tlačítko se znaménkem +mapu přiblížíte, kliknutím na zelené tlačítko se znaménkem – mapu oddálíte a kliknutím na zelené šipky přejdete na sousední mapy.


METAR-TAF: